sensor_id;sensor_type;location;lat;lon;timestamp;P1;durP1;ratioP1;P2;durP2;ratioP2
28529;SDS011;15737;49.760;6.632;2023-03-05T00:00:10;6.60;;;3.30;;
28529;SDS011;15737;49.760;6.632;2023-03-05T00:02:37;5.23;;;3.63;;
28529;SDS011;15737;49.760;6.632;2023-03-05T00:05:03;9.77;;;4.10;;
28529;SDS011;15737;49.760;6.632;2023-03-05T00:07:29;3.13;;;2.00;;
28529;SDS011;15737;49.760;6.632;2023-03-05T00:09:57;4.97;;;2.57;;
28529;SDS011;15737;49.760;6.632;2023-03-05T00:12:28;4.20;;;3.07;;
28529;SDS011;15737;49.760;6.632;2023-03-05T00:14:54;8.87;;;3.93;;
28529;SDS011;15737;49.760;6.632;2023-03-05T00:17:19;18.67;;;4.67;;
28529;SDS011;15737;49.760;6.632;2023-03-05T00:19:46;8.40;;;3.70;;
28529;SDS011;15737;49.760;6.632;2023-03-05T00:22:12;6.80;;;3.07;;
28529;SDS011;15737;49.760;6.632;2023-03-05T00:24:37;5.33;;;3.37;;
28529;SDS011;15737;49.760;6.632;2023-03-05T00:27:03;4.53;;;1.10;;
28529;SDS011;15737;49.760;6.632;2023-03-05T00:29:28;7.03;;;3.70;;
28529;SDS011;15737;49.760;6.632;2023-03-05T00:31:54;6.07;;;3.43;;
28529;SDS011;15737;49.760;6.632;2023-03-05T00:34:20;1.33;;;1.27;;
28529;SDS011;15737;49.760;6.632;2023-03-05T00:36:47;4.93;;;3.13;;
28529;SDS011;15737;49.760;6.632;2023-03-05T00:39:15;3.50;;;3.00;;
28529;SDS011;15737;49.760;6.632;2023-03-05T00:41:41;4.53;;;2.87;;
28529;SDS011;15737;49.760;6.632;2023-03-05T00:44:07;4.93;;;2.73;;
28529;SDS011;15737;49.760;6.632;2023-03-05T00:46:33;4.27;;;2.40;;
28529;SDS011;15737;49.760;6.632;2023-03-05T00:48:59;8.27;;;3.40;;
28529;SDS011;15737;49.760;6.632;2023-03-05T00:51:25;6.77;;;2.27;;
28529;SDS011;15737;49.760;6.632;2023-03-05T00:53:50;5.90;;;2.60;;
28529;SDS011;15737;49.760;6.632;2023-03-05T00:56:16;8.07;;;3.40;;
28529;SDS011;15737;49.760;6.632;2023-03-05T00:58:43;7.97;;;3.73;;
28529;SDS011;15737;49.760;6.632;2023-03-05T01:01:08;4.90;;;2.83;;
28529;SDS011;15737;49.760;6.632;2023-03-05T01:03:34;6.93;;;3.73;;
28529;SDS011;15737;49.760;6.632;2023-03-05T01:06:00;8.33;;;3.83;;
28529;SDS011;15737;49.760;6.632;2023-03-05T01:08:29;4.93;;;2.70;;
28529;SDS011;15737;49.760;6.632;2023-03-05T01:10:54;5.10;;;3.07;;
28529;SDS011;15737;49.760;6.632;2023-03-05T01:13:20;5.77;;;3.30;;
28529;SDS011;15737;49.760;6.632;2023-03-05T01:15:45;8.20;;;3.63;;
28529;SDS011;15737;49.760;6.632;2023-03-05T01:18:12;5.10;;;2.80;;
28529;SDS011;15737;49.760;6.632;2023-03-05T01:20:38;4.70;;;2.63;;
28529;SDS011;15737;49.760;6.632;2023-03-05T01:23:04;8.73;;;3.73;;
28529;SDS011;15737;49.760;6.632;2023-03-05T01:25:29;6.10;;;2.50;;
28529;SDS011;15737;49.760;6.632;2023-03-05T01:27:55;4.77;;;2.63;;
28529;SDS011;15737;49.760;6.632;2023-03-05T01:30:20;2.93;;;2.00;;
28529;SDS011;15737;49.760;6.632;2023-03-05T01:32:46;4.80;;;2.53;;
28529;SDS011;15737;49.760;6.632;2023-03-05T01:35:14;5.50;;;3.20;;
28529;SDS011;15737;49.760;6.632;2023-03-05T01:37:43;4.40;;;2.60;;
28529;SDS011;15737;49.760;6.632;2023-03-05T01:40:10;3.10;;;2.40;;
28529;SDS011;15737;49.760;6.632;2023-03-05T01:42:37;2.90;;;1.97;;
28529;SDS011;15737;49.760;6.632;2023-03-05T01:47:30;4.90;;;2.23;;
28529;SDS011;15737;49.760;6.632;2023-03-05T01:49:55;7.13;;;3.03;;
28529;SDS011;15737;49.760;6.632;2023-03-05T01:52:22;3.60;;;2.17;;
28529;SDS011;15737;49.760;6.632;2023-03-05T01:54:52;2.03;;;1.40;;
28529;SDS011;15737;49.760;6.632;2023-03-05T01:57:29;1.07;;;0.90;;
28529;SDS011;15737;49.760;6.632;2023-03-05T01:59:59;3.37;;;2.20;;
28529;SDS011;15737;49.760;6.632;2023-03-05T02:02:33;3.83;;;2.37;;
28529;SDS011;15737;49.760;6.632;2023-03-05T02:05:03;5.17;;;2.17;;
28529;SDS011;15737;49.760;6.632;2023-03-05T02:07:34;3.20;;;1.93;;
28529;SDS011;15737;49.760;6.632;2023-03-05T02:10:13;3.70;;;1.90;;
28529;SDS011;15737;49.760;6.632;2023-03-05T02:12:43;3.40;;;1.23;;
28529;SDS011;15737;49.760;6.632;2023-03-05T02:15:08;2.53;;;2.00;;
28529;SDS011;15737;49.760;6.632;2023-03-05T02:17:35;1.87;;;1.37;;
28529;SDS011;15737;49.760;6.632;2023-03-05T02:20:03;2.73;;;1.77;;
28529;SDS011;15737;49.760;6.632;2023-03-05T02:22:37;1.77;;;1.23;;
28529;SDS011;15737;49.760;6.632;2023-03-05T02:25:11;2.10;;;0.90;;
28529;SDS011;15737;49.760;6.632;2023-03-05T02:27:42;1.60;;;1.00;;
28529;SDS011;15737;49.760;6.632;2023-03-05T02:30:14;1.77;;;1.67;;
28529;SDS011;15737;49.760;6.632;2023-03-05T02:32:39;3.57;;;2.03;;
28529;SDS011;15737;49.760;6.632;2023-03-05T02:35:05;1.93;;;1.20;;
28529;SDS011;15737;49.760;6.632;2023-03-05T02:37:31;1.43;;;0.97;;
28529;SDS011;15737;49.760;6.632;2023-03-05T02:39:56;2.07;;;1.50;;
28529;SDS011;15737;49.760;6.632;2023-03-05T02:42:25;1.20;;;1.03;;
28529;SDS011;15737;49.760;6.632;2023-03-05T02:44:50;1.43;;;0.83;;
28529;SDS011;15737;49.760;6.632;2023-03-05T02:47:16;3.00;;;1.30;;
28529;SDS011;15737;49.760;6.632;2023-03-05T02:49:41;2.40;;;1.03;;
28529;SDS011;15737;49.760;6.632;2023-03-05T02:52:07;2.03;;;1.23;;
28529;SDS011;15737;49.760;6.632;2023-03-05T02:54:32;2.67;;;1.23;;
28529;SDS011;15737;49.760;6.632;2023-03-05T02:56:58;3.57;;;1.20;;
28529;SDS011;15737;49.760;6.632;2023-03-05T02:59:23;3.57;;;1.20;;
28529;SDS011;15737;49.760;6.632;2023-03-05T03:01:49;2.87;;;1.60;;
28529;SDS011;15737;49.760;6.632;2023-03-05T03:04:14;4.47;;;1.53;;
28529;SDS011;15737;49.760;6.632;2023-03-05T03:06:40;2.53;;;1.17;;
28529;SDS011;15737;49.760;6.632;2023-03-05T03:09:05;1.63;;;0.90;;
28529;SDS011;15737;49.760;6.632;2023-03-05T03:11:31;2.37;;;1.83;;
28529;SDS011;15737;49.760;6.632;2023-03-05T03:13:57;1.40;;;1.00;;
28529;SDS011;15737;49.760;6.632;2023-03-05T03:16:23;2.57;;;1.20;;
28529;SDS011;15737;49.760;6.632;2023-03-05T03:18:49;2.03;;;1.33;;
28529;SDS011;15737;49.760;6.632;2023-03-05T03:21:15;1.60;;;1.20;;
28529;SDS011;15737;49.760;6.632;2023-03-05T03:23:43;7.57;;;1.40;;
28529;SDS011;15737;49.760;6.632;2023-03-05T03:26:08;2.63;;;1.03;;
28529;SDS011;15737;49.760;6.632;2023-03-05T03:28:34;2.10;;;1.07;;
28529;SDS011;15737;49.760;6.632;2023-03-05T03:30:59;1.07;;;0.97;;
28529;SDS011;15737;49.760;6.632;2023-03-05T03:33:25;1.63;;;1.10;;
28529;SDS011;15737;49.760;6.632;2023-03-05T03:35:50;1.97;;;0.80;;
28529;SDS011;15737;49.760;6.632;2023-03-05T03:38:16;1.83;;;0.93;;
28529;SDS011;15737;49.760;6.632;2023-03-05T03:40:41;3.03;;;1.30;;
28529;SDS011;15737;49.760;6.632;2023-03-05T03:43:07;1.70;;;0.90;;
28529;SDS011;15737;49.760;6.632;2023-03-05T03:45:33;1.20;;;1.10;;
28529;SDS011;15737;49.760;6.632;2023-03-05T03:47:59;5.07;;;1.70;;
28529;SDS011;15737;49.760;6.632;2023-03-05T03:50:24;3.60;;;1.10;;
28529;SDS011;15737;49.760;6.632;2023-03-05T03:52:50;1.57;;;0.90;;
28529;SDS011;15737;49.760;6.632;2023-03-05T03:55:16;2.57;;;1.33;;
28529;SDS011;15737;49.760;6.632;2023-03-05T03:57:41;1.67;;;1.27;;
28529;SDS011;15737;49.760;6.632;2023-03-05T04:00:08;1.70;;;1.20;;
28529;SDS011;15737;49.760;6.632;2023-03-05T04:02:35;1.33;;;1.20;;
28529;SDS011;15737;49.760;6.632;2023-03-05T04:05:01;1.90;;;1.23;;
28529;SDS011;15737;49.760;6.632;2023-03-05T04:07:27;2.10;;;0.80;;
28529;SDS011;15737;49.760;6.632;2023-03-05T04:09:53;1.17;;;1.07;;
28529;SDS011;15737;49.760;6.632;2023-03-05T04:12:18;1.80;;;1.53;;
28529;SDS011;15737;49.760;6.632;2023-03-05T04:14:44;2.73;;;1.20;;
28529;SDS011;15737;49.760;6.632;2023-03-05T04:17:11;3.73;;;1.40;;
28529;SDS011;15737;49.760;6.632;2023-03-05T04:19:37;2.30;;;1.23;;
28529;SDS011;15737;49.760;6.632;2023-03-05T04:22:03;3.27;;;1.40;;
28529;SDS011;15737;49.760;6.632;2023-03-05T04:24:29;2.67;;;1.03;;
28529;SDS011;15737;49.760;6.632;2023-03-05T04:26:55;2.13;;;1.37;;
28529;SDS011;15737;49.760;6.632;2023-03-05T04:29:20;1.47;;;1.10;;
28529;SDS011;15737;49.760;6.632;2023-03-05T04:31:46;1.10;;;1.00;;
28529;SDS011;15737;49.760;6.632;2023-03-05T04:34:11;0.80;;;0.80;;
28529;SDS011;15737;49.760;6.632;2023-03-05T04:36:37;1.23;;;1.00;;
28529;SDS011;15737;49.760;6.632;2023-03-05T04:39:02;1.50;;;1.20;;
28529;SDS011;15737;49.760;6.632;2023-03-05T04:41:31;1.30;;;0.90;;
28529;SDS011;15737;49.760;6.632;2023-03-05T04:43:57;0.97;;;0.97;;
28529;SDS011;15737;49.760;6.632;2023-03-05T04:46:22;0.50;;;0.50;;
28529;SDS011;15737;49.760;6.632;2023-03-05T04:48:48;0.80;;;0.77;;
28529;SDS011;15737;49.760;6.632;2023-03-05T04:51:13;3.87;;;1.43;;
28529;SDS011;15737;49.760;6.632;2023-03-05T04:53:39;1.50;;;0.83;;
28529;SDS011;15737;49.760;6.632;2023-03-05T04:56:04;2.03;;;1.30;;
28529;SDS011;15737;49.760;6.632;2023-03-05T04:58:30;1.77;;;1.23;;
28529;SDS011;15737;49.760;6.632;2023-03-05T05:03:26;1.77;;;1.10;;
28529;SDS011;15737;49.760;6.632;2023-03-05T05:05:53;1.30;;;1.00;;
28529;SDS011;15737;49.760;6.632;2023-03-05T05:08:20;1.90;;;1.13;;
28529;SDS011;15737;49.760;6.632;2023-03-05T05:10:53;1.73;;;1.20;;
28529;SDS011;15737;49.760;6.632;2023-03-05T05:13:23;2.60;;;1.30;;
28529;SDS011;15737;49.760;6.632;2023-03-05T05:15:49;2.10;;;1.33;;
28529;SDS011;15737;49.760;6.632;2023-03-05T05:18:14;0.53;;;0.53;;
28529;SDS011;15737;49.760;6.632;2023-03-05T05:20:40;2.37;;;0.90;;
28529;SDS011;15737;49.760;6.632;2023-03-05T05:23:06;0.97;;;0.90;;
28529;SDS011;15737;49.760;6.632;2023-03-05T05:25:31;1.63;;;1.40;;
28529;SDS011;15737;49.760;6.632;2023-03-05T05:27:57;1.10;;;1.00;;
28529;SDS011;15737;49.760;6.632;2023-03-05T05:30:22;3.37;;;0.83;;
28529;SDS011;15737;49.760;6.632;2023-03-05T05:32:48;0.90;;;0.90;;
28529;SDS011;15737;49.760;6.632;2023-03-05T05:35:13;4.47;;;0.80;;
28529;SDS011;15737;49.760;6.632;2023-03-05T05:37:39;3.23;;;0.93;;
28529;SDS011;15737;49.760;6.632;2023-03-05T05:40:04;4.10;;;0.83;;
28529;SDS011;15737;49.760;6.632;2023-03-05T05:42:32;2.63;;;1.03;;
28529;SDS011;15737;49.760;6.632;2023-03-05T05:44:58;0.63;;;0.50;;
28529;SDS011;15737;49.760;6.632;2023-03-05T05:47:24;2.17;;;1.00;;
28529;SDS011;15737;49.760;6.632;2023-03-05T05:49:49;1.13;;;0.80;;
28529;SDS011;15737;49.760;6.632;2023-03-05T05:52:15;1.37;;;0.80;;
28529;SDS011;15737;49.760;6.632;2023-03-05T05:54:41;0.40;;;0.40;;
28529;SDS011;15737;49.760;6.632;2023-03-05T05:57:07;2.67;;;0.90;;
28529;SDS011;15737;49.760;6.632;2023-03-05T05:59:33;6.53;;;1.00;;
28529;SDS011;15737;49.760;6.632;2023-03-05T06:01:58;1.33;;;0.60;;
28529;SDS011;15737;49.760;6.632;2023-03-05T06:04:24;0.77;;;0.77;;
28529;SDS011;15737;49.760;6.632;2023-03-05T06:06:49;1.80;;;0.90;;
28529;SDS011;15737;49.760;6.632;2023-03-05T06:09:15;2.50;;;1.33;;
28529;SDS011;15737;49.760;6.632;2023-03-05T06:11:41;1.50;;;0.80;;
28529;SDS011;15737;49.760;6.632;2023-03-05T06:14:06;1.27;;;0.80;;
28529;SDS011;15737;49.760;6.632;2023-03-05T06:16:32;0.63;;;0.63;;
28529;SDS011;15737;49.760;6.632;2023-03-05T06:18:59;0.57;;;0.57;;
28529;SDS011;15737;49.760;6.632;2023-03-05T06:21:28;1.07;;;1.00;;
28529;SDS011;15737;49.760;6.632;2023-03-05T06:23:54;0.80;;;0.73;;
28529;SDS011;15737;49.760;6.632;2023-03-05T06:26:20;0.63;;;0.63;;
28529;SDS011;15737;49.760;6.632;2023-03-05T06:28:46;0.47;;;0.30;;
28529;SDS011;15737;49.760;6.632;2023-03-05T06:31:14;1.93;;;1.10;;
28529;SDS011;15737;49.760;6.632;2023-03-05T06:33:45;1.80;;;1.13;;
28529;SDS011;15737;49.760;6.632;2023-03-05T06:36:12;1.33;;;1.03;;
28529;SDS011;15737;49.760;6.632;2023-03-05T06:38:39;1.63;;;1.00;;
28529;SDS011;15737;49.760;6.632;2023-03-05T06:41:06;1.77;;;1.10;;
28529;SDS011;15737;49.760;6.632;2023-03-05T06:43:40;1.20;;;1.03;;
28529;SDS011;15737;49.760;6.632;2023-03-05T06:46:18;3.23;;;1.20;;
28529;SDS011;15737;49.760;6.632;2023-03-05T06:48:45;0.67;;;0.47;;
28529;SDS011;15737;49.760;6.632;2023-03-05T06:51:12;2.43;;;1.13;;
28529;SDS011;15737;49.760;6.632;2023-03-05T06:53:46;1.20;;;1.10;;
28529;SDS011;15737;49.760;6.632;2023-03-05T06:56:12;3.40;;;1.20;;
28529;SDS011;15737;49.760;6.632;2023-03-05T06:58:40;3.23;;;1.00;;
28529;SDS011;15737;49.760;6.632;2023-03-05T07:01:06;1.60;;;0.93;;
28529;SDS011;15737;49.760;6.632;2023-03-05T07:03:32;6.17;;;1.83;;
28529;SDS011;15737;49.760;6.632;2023-03-05T07:06:01;2.67;;;1.63;;
28529;SDS011;15737;49.760;6.632;2023-03-05T07:08:28;4.87;;;1.77;;
28529;SDS011;15737;49.760;6.632;2023-03-05T07:10:53;4.20;;;1.37;;
28529;SDS011;15737;49.760;6.632;2023-03-05T07:13:19;2.00;;;1.30;;
28529;SDS011;15737;49.760;6.632;2023-03-05T07:15:44;1.63;;;1.37;;
28529;SDS011;15737;49.760;6.632;2023-03-05T07:18:10;1.47;;;1.17;;
28529;SDS011;15737;49.760;6.632;2023-03-05T07:20:35;3.63;;;1.73;;
28529;SDS011;15737;49.760;6.632;2023-03-05T07:23:02;7.60;;;1.57;;
28529;SDS011;15737;49.760;6.632;2023-03-05T07:25:28;11.37;;;2.30;;
28529;SDS011;15737;49.760;6.632;2023-03-05T07:27:53;2.10;;;1.60;;
28529;SDS011;15737;49.760;6.632;2023-03-05T07:30:19;2.00;;;1.40;;
28529;SDS011;15737;49.760;6.632;2023-03-05T07:32:45;1.73;;;1.17;;
28529;SDS011;15737;49.760;6.632;2023-03-05T07:35:10;4.70;;;1.63;;
28529;SDS011;15737;49.760;6.632;2023-03-05T07:37:36;2.77;;;1.67;;
28529;SDS011;15737;49.760;6.632;2023-03-05T07:40:01;2.23;;;1.63;;
28529;SDS011;15737;49.760;6.632;2023-03-05T07:42:28;2.23;;;1.33;;
28529;SDS011;15737;49.760;6.632;2023-03-05T07:44:54;5.37;;;1.70;;
28529;SDS011;15737;49.760;6.632;2023-03-05T07:47:19;2.37;;;1.83;;
28529;SDS011;15737;49.760;6.632;2023-03-05T07:49:47;2.17;;;1.40;;
28529;SDS011;15737;49.760;6.632;2023-03-05T07:52:13;1.53;;;1.40;;
28529;SDS011;15737;49.760;6.632;2023-03-05T07:54:38;2.00;;;1.63;;
28529;SDS011;15737;49.760;6.632;2023-03-05T07:57:04;2.70;;;1.40;;
28529;SDS011;15737;49.760;6.632;2023-03-05T07:59:31;4.60;;;2.03;;
28529;SDS011;15737;49.760;6.632;2023-03-05T08:01:56;1.70;;;1.33;;
28529;SDS011;15737;49.760;6.632;2023-03-05T08:04:22;5.90;;;1.10;;
28529;SDS011;15737;49.760;6.632;2023-03-05T08:06:48;1.53;;;1.33;;
28529;SDS011;15737;49.760;6.632;2023-03-05T08:09:14;7.00;;;1.60;;
28529;SDS011;15737;49.760;6.632;2023-03-05T08:11:40;2.67;;;2.10;;
28529;SDS011;15737;49.760;6.632;2023-03-05T08:14:06;4.80;;;2.27;;
28529;SDS011;15737;49.760;6.632;2023-03-05T08:16:31;1.83;;;1.20;;
28529;SDS011;15737;49.760;6.632;2023-03-05T08:18:57;2.63;;;1.40;;
28529;SDS011;15737;49.760;6.632;2023-03-05T08:21:24;2.10;;;1.43;;
28529;SDS011;15737;49.760;6.632;2023-03-05T08:23:58;1.83;;;1.73;;
28529;SDS011;15737;49.760;6.632;2023-03-05T08:26:26;2.60;;;1.63;;
28529;SDS011;15737;49.760;6.632;2023-03-05T08:28:53;6.13;;;2.27;;
28529;SDS011;15737;49.760;6.632;2023-03-05T08:31:20;3.03;;;1.97;;
28529;SDS011;15737;49.760;6.632;2023-03-05T08:33:48;1.90;;;1.70;;
28529;SDS011;15737;49.760;6.632;2023-03-05T08:36:15;4.80;;;2.30;;
28529;SDS011;15737;49.760;6.632;2023-03-05T08:38:40;2.70;;;1.77;;
28529;SDS011;15737;49.760;6.632;2023-03-05T08:41:07;4.83;;;2.10;;
28529;SDS011;15737;49.760;6.632;2023-03-05T08:43:33;3.90;;;1.93;;
28529;SDS011;15737;49.760;6.632;2023-03-05T08:45:59;8.17;;;2.20;;
28529;SDS011;15737;49.760;6.632;2023-03-05T08:48:25;2.30;;;2.03;;
28529;SDS011;15737;49.760;6.632;2023-03-05T08:50:52;5.30;;;1.73;;
28529;SDS011;15737;49.760;6.632;2023-03-05T08:53:18;3.80;;;2.33;;
28529;SDS011;15737;49.760;6.632;2023-03-05T08:55:52;3.97;;;2.00;;
28529;SDS011;15737;49.760;6.632;2023-03-05T08:58:21;11.67;;;2.30;;
28529;SDS011;15737;49.760;6.632;2023-03-05T09:00:46;2.63;;;1.93;;
28529;SDS011;15737;49.760;6.632;2023-03-05T09:03:12;1.73;;;1.63;;
28529;SDS011;15737;49.760;6.632;2023-03-05T09:05:37;3.70;;;1.90;;
28529;SDS011;15737;49.760;6.632;2023-03-05T09:08:03;3.10;;;1.90;;
28529;SDS011;15737;49.760;6.632;2023-03-05T09:10:28;4.87;;;2.00;;
28529;SDS011;15737;49.760;6.632;2023-03-05T09:12:54;3.70;;;2.27;;
28529;SDS011;15737;49.760;6.632;2023-03-05T09:15:19;3.80;;;2.17;;
28529;SDS011;15737;49.760;6.632;2023-03-05T09:17:45;4.50;;;2.43;;
28529;SDS011;15737;49.760;6.632;2023-03-05T09:20:11;3.33;;;2.10;;
28529;SDS011;15737;49.760;6.632;2023-03-05T09:22:38;5.43;;;2.40;;
28529;SDS011;15737;49.760;6.632;2023-03-05T09:25:04;4.87;;;2.30;;
28529;SDS011;15737;49.760;6.632;2023-03-05T09:27:33;1.80;;;1.57;;
28529;SDS011;15737;49.760;6.632;2023-03-05T09:30:00;4.63;;;2.43;;
28529;SDS011;15737;49.760;6.632;2023-03-05T09:32:25;2.37;;;1.37;;
28529;SDS011;15737;49.760;6.632;2023-03-05T09:34:51;3.10;;;1.80;;
28529;SDS011;15737;49.760;6.632;2023-03-05T09:37:16;6.70;;;2.10;;
28529;SDS011;15737;49.760;6.632;2023-03-05T09:39:42;7.07;;;2.33;;
28529;SDS011;15737;49.760;6.632;2023-03-05T09:44:54;2.57;;;1.50;;
28529;SDS011;15737;49.760;6.632;2023-03-05T09:47:50;4.07;;;1.50;;
28529;SDS011;15737;49.760;6.632;2023-03-05T09:50:39;1.97;;;1.57;;
28529;SDS011;15737;49.760;6.632;2023-03-05T09:53:30;1.47;;;1.37;;
28529;SDS011;15737;49.760;6.632;2023-03-05T09:56:11;1.30;;;0.70;;
28529;SDS011;15737;49.760;6.632;2023-03-05T09:58:40;3.93;;;1.47;;
28529;SDS011;15737;49.760;6.632;2023-03-05T10:01:14;3.23;;;1.80;;
28529;SDS011;15737;49.760;6.632;2023-03-05T10:06:28;2.17;;;1.27;;
28529;SDS011;15737;49.760;6.632;2023-03-05T10:11:49;1.37;;;1.27;;
28529;SDS011;15737;49.760;6.632;2023-03-05T10:14:39;0.60;;;0.60;;
28529;SDS011;15737;49.760;6.632;2023-03-05T10:17:10;1.43;;;1.13;;
28529;SDS011;15737;49.760;6.632;2023-03-05T10:22:21;2.47;;;1.60;;
28529;SDS011;15737;49.760;6.632;2023-03-05T10:25:13;2.30;;;1.60;;
28529;SDS011;15737;49.760;6.632;2023-03-05T10:27:49;0.97;;;0.97;;
28529;SDS011;15737;49.760;6.632;2023-03-05T10:33:19;2.33;;;1.27;;
28529;SDS011;15737;49.760;6.632;2023-03-05T10:36:21;2.30;;;1.10;;
28529;SDS011;15737;49.760;6.632;2023-03-05T10:44:36;1.37;;;1.20;;
28529;SDS011;15737;49.760;6.632;2023-03-05T10:47:13;1.60;;;1.23;;
28529;SDS011;15737;49.760;6.632;2023-03-05T10:49:54;0.70;;;0.70;;
28529;SDS011;15737;49.760;6.632;2023-03-05T10:52:24;1.23;;;0.80;;
28529;SDS011;15737;49.760;6.632;2023-03-05T10:54:52;1.30;;;1.20;;
28529;SDS011;15737;49.760;6.632;2023-03-05T10:59:56;0.43;;;0.43;;
28529;SDS011;15737;49.760;6.632;2023-03-05T11:02:31;0.83;;;0.77;;
28529;SDS011;15737;49.760;6.632;2023-03-05T11:04:57;0.63;;;0.63;;
28529;SDS011;15737;49.760;6.632;2023-03-05T11:10:13;0.87;;;0.83;;
28529;SDS011;15737;49.760;6.632;2023-03-05T11:12:39;1.93;;;1.00;;
28529;SDS011;15737;49.760;6.632;2023-03-05T11:25:27;1.40;;;0.87;;
28529;SDS011;15737;49.760;6.632;2023-03-05T11:27:54;2.20;;;0.90;;
28529;SDS011;15737;49.760;6.632;2023-03-05T11:35:39;1.73;;;1.13;;
28529;SDS011;15737;49.760;6.632;2023-03-05T11:38:14;0.70;;;0.70;;
28529;SDS011;15737;49.760;6.632;2023-03-05T11:40:51;0.63;;;0.60;;
28529;SDS011;15737;49.760;6.632;2023-03-05T11:43:20;0.80;;;0.80;;
28529;SDS011;15737;49.760;6.632;2023-03-05T11:45:49;2.07;;;1.27;;
28529;SDS011;15737;49.760;6.632;2023-03-05T11:48:19;1.23;;;0.83;;
28529;SDS011;15737;49.760;6.632;2023-03-05T11:50:53;0.97;;;0.90;;
28529;SDS011;15737;49.760;6.632;2023-03-05T11:53:26;2.30;;;1.30;;
28529;SDS011;15737;49.760;6.632;2023-03-05T11:58:45;2.13;;;1.00;;
28529;SDS011;15737;49.760;6.632;2023-03-05T12:01:17;1.47;;;1.00;;
28529;SDS011;15737;49.760;6.632;2023-03-05T12:03:47;1.00;;;0.90;;
28529;SDS011;15737;49.760;6.632;2023-03-05T12:06:16;1.00;;;1.00;;
28529;SDS011;15737;49.760;6.632;2023-03-05T12:08:56;2.03;;;1.93;;
28529;SDS011;15737;49.760;6.632;2023-03-05T12:11:27;3.33;;;3.03;;
28529;SDS011;15737;49.760;6.632;2023-03-05T12:16:47;2.30;;;2.13;;
28529;SDS011;15737;49.760;6.632;2023-03-05T12:19:37;2.20;;;1.50;;
28529;SDS011;15737;49.760;6.632;2023-03-05T12:22:16;0.77;;;0.77;;
28529;SDS011;15737;49.760;6.632;2023-03-05T12:24:47;1.73;;;1.20;;
28529;SDS011;15737;49.760;6.632;2023-03-05T12:27:14;1.57;;;1.00;;
28529;SDS011;15737;49.760;6.632;2023-03-05T12:30:20;1.30;;;1.00;;
28529;SDS011;15737;49.760;6.632;2023-03-05T12:32:58;0.50;;;0.50;;
28529;SDS011;15737;49.760;6.632;2023-03-05T12:35:31;0.80;;;0.70;;
28529;SDS011;15737;49.760;6.632;2023-03-05T12:38:01;1.20;;;0.97;;
28529;SDS011;15737;49.760;6.632;2023-03-05T12:40:40;1.30;;;1.20;;
28529;SDS011;15737;49.760;6.632;2023-03-05T12:48:52;0.70;;;0.70;;
28529;SDS011;15737;49.760;6.632;2023-03-05T12:51:28;1.40;;;0.70;;
28529;SDS011;15737;49.760;6.632;2023-03-05T12:54:20;2.27;;;1.17;;
28529;SDS011;15737;49.760;6.632;2023-03-05T12:56:45;1.27;;;0.90;;
28529;SDS011;15737;49.760;6.632;2023-03-05T12:59:11;0.73;;;0.73;;
28529;SDS011;15737;49.760;6.632;2023-03-05T13:01:41;0.83;;;0.83;;
28529;SDS011;15737;49.760;6.632;2023-03-05T13:04:18;0.50;;;0.50;;
28529;SDS011;15737;49.760;6.632;2023-03-05T13:07:21;1.27;;;0.70;;
28529;SDS011;15737;49.760;6.632;2023-03-05T13:09:50;0.60;;;0.60;;
28529;SDS011;15737;49.760;6.632;2023-03-05T13:12:17;1.13;;;0.80;;
28529;SDS011;15737;49.760;6.632;2023-03-05T13:14:47;0.70;;;0.70;;
28529;SDS011;15737;49.760;6.632;2023-03-05T13:17:26;1.13;;;0.60;;
28529;SDS011;15737;49.760;6.632;2023-03-05T13:19:53;0.70;;;0.70;;
28529;SDS011;15737;49.760;6.632;2023-03-05T13:22:19;2.10;;;0.63;;
28529;SDS011;15737;49.760;6.632;2023-03-05T13:24:45;0.67;;;0.67;;
28529;SDS011;15737;49.760;6.632;2023-03-05T13:27:30;0.40;;;0.40;;
28529;SDS011;15737;49.760;6.632;2023-03-05T13:29:56;1.90;;;1.03;;
28529;SDS011;15737;49.760;6.632;2023-03-05T13:32:26;0.60;;;0.60;;
28529;SDS011;15737;49.760;6.632;2023-03-05T13:34:54;0.60;;;0.60;;
28529;SDS011;15737;49.760;6.632;2023-03-05T13:37:24;0.90;;;0.67;;
28529;SDS011;15737;49.760;6.632;2023-03-05T13:42:44;0.70;;;0.70;;
28529;SDS011;15737;49.760;6.632;2023-03-05T13:45:21;0.60;;;0.60;;
28529;SDS011;15737;49.760;6.632;2023-03-05T13:47:50;0.93;;;0.87;;
28529;SDS011;15737;49.760;6.632;2023-03-05T13:50:29;0.50;;;0.50;;
28529;SDS011;15737;49.760;6.632;2023-03-05T13:56:03;0.80;;;0.80;;
28529;SDS011;15737;49.760;6.632;2023-03-05T13:58:44;0.30;;;0.30;;
28529;SDS011;15737;49.760;6.632;2023-03-05T14:01:31;0.40;;;0.40;;
28529;SDS011;15737;49.760;6.632;2023-03-05T14:06:40;0.47;;;0.47;;
28529;SDS011;15737;49.760;6.632;2023-03-05T14:09:23;0.73;;;0.57;;
28529;SDS011;15737;49.760;6.632;2023-03-05T14:11:55;0.40;;;0.40;;
28529;SDS011;15737;49.760;6.632;2023-03-05T14:14:28;0.90;;;0.53;;
28529;SDS011;15737;49.760;6.632;2023-03-05T14:22:36;0.20;;;0.20;;
28529;SDS011;15737;49.760;6.632;2023-03-05T14:25:03;0.63;;;0.63;;
28529;SDS011;15737;49.760;6.632;2023-03-05T14:27:34;0.53;;;0.53;;
28529;SDS011;15737;49.760;6.632;2023-03-05T14:30:01;0.60;;;0.60;;
28529;SDS011;15737;49.760;6.632;2023-03-05T14:32:29;0.93;;;0.20;;
28529;SDS011;15737;49.760;6.632;2023-03-05T14:34:58;0.43;;;0.43;;
28529;SDS011;15737;49.760;6.632;2023-03-05T14:37:30;0.53;;;0.53;;
28529;SDS011;15737;49.760;6.632;2023-03-05T14:40:06;0.23;;;0.23;;
28529;SDS011;15737;49.760;6.632;2023-03-05T14:45:45;0.30;;;0.30;;
28529;SDS011;15737;49.760;6.632;2023-03-05T14:48:12;0.47;;;0.47;;
28529;SDS011;15737;49.760;6.632;2023-03-05T14:50:49;0.23;;;0.23;;
28529;SDS011;15737;49.760;6.632;2023-03-05T14:53:21;0.20;;;0.20;;
28529;SDS011;15737;49.760;6.632;2023-03-05T14:55:50;0.50;;;0.50;;
28529;SDS011;15737;49.760;6.632;2023-03-05T14:58:21;0.30;;;0.30;;
28529;SDS011;15737;49.760;6.632;2023-03-05T15:00:50;0.30;;;0.30;;
28529;SDS011;15737;49.760;6.632;2023-03-05T15:03:17;0.50;;;0.50;;
28529;SDS011;15737;49.760;6.632;2023-03-05T15:05:44;0.87;;;0.30;;
28529;SDS011;15737;49.760;6.632;2023-03-05T15:08:12;0.70;;;0.70;;
28529;SDS011;15737;49.760;6.632;2023-03-05T15:10:40;0.50;;;0.50;;
28529;SDS011;15737;49.760;6.632;2023-03-05T15:13:07;0.50;;;0.50;;
28529;SDS011;15737;49.760;6.632;2023-03-05T15:15:32;0.50;;;0.50;;
28529;SDS011;15737;49.760;6.632;2023-03-05T15:17:58;1.70;;;0.60;;
28529;SDS011;15737;49.760;6.632;2023-03-05T15:22:54;0.73;;;0.50;;
28529;SDS011;15737;49.760;6.632;2023-03-05T15:25:20;0.30;;;0.30;;
28529;SDS011;15737;49.760;6.632;2023-03-05T15:27:47;0.63;;;0.30;;
28529;SDS011;15737;49.760;6.632;2023-03-05T15:30:17;0.20;;;0.20;;
28529;SDS011;15737;49.760;6.632;2023-03-05T15:32:49;1.90;;;0.77;;
28529;SDS011;15737;49.760;6.632;2023-03-05T15:35:16;0.33;;;0.33;;
28529;SDS011;15737;49.760;6.632;2023-03-05T15:37:42;1.97;;;1.07;;
28529;SDS011;15737;49.760;6.632;2023-03-05T15:40:07;0.50;;;0.50;;
28529;SDS011;15737;49.760;6.632;2023-03-05T15:42:33;0.30;;;0.30;;
28529;SDS011;15737;49.760;6.632;2023-03-05T15:44:59;0.80;;;0.50;;
28529;SDS011;15737;49.760;6.632;2023-03-05T15:47:24;0.60;;;0.40;;
28529;SDS011;15737;49.760;6.632;2023-03-05T15:49:50;1.27;;;0.53;;
28529;SDS011;15737;49.760;6.632;2023-03-05T15:52:15;0.33;;;0.30;;
28529;SDS011;15737;49.760;6.632;2023-03-05T15:54:41;0.63;;;0.57;;
28529;SDS011;15737;49.760;6.632;2023-03-05T15:57:07;0.53;;;0.47;;
28529;SDS011;15737;49.760;6.632;2023-03-05T15:59:34;0.40;;;0.40;;
28529;SDS011;15737;49.760;6.632;2023-03-05T16:02:00;0.50;;;0.50;;
28529;SDS011;15737;49.760;6.632;2023-03-05T16:04:26;0.90;;;0.90;;
28529;SDS011;15737;49.760;6.632;2023-03-05T16:06:53;1.90;;;1.00;;
28529;SDS011;15737;49.760;6.632;2023-03-05T16:09:22;2.20;;;0.57;;
28529;SDS011;15737;49.760;6.632;2023-03-05T16:11:49;2.87;;;0.47;;